sensor_id;sensor_type;location;lat;lon;timestamp;P1;durP1;ratioP1;P2;durP2;ratioP2
11675;SDS011;5894;42.768;23.404;2023-04-03T00:01:32;21.03;;;11.27;;
11675;SDS011;5894;42.768;23.404;2023-04-03T00:04:00;18.63;;;11.63;;
11675;SDS011;5894;42.768;23.404;2023-04-03T00:06:27;17.33;;;10.97;;
11675;SDS011;5894;42.768;23.404;2023-04-03T00:08:54;18.03;;;11.10;;
11675;SDS011;5894;42.768;23.404;2023-04-03T00:11:22;15.70;;;9.20;;
11675;SDS011;5894;42.768;23.404;2023-04-03T00:13:48;16.13;;;10.47;;
11675;SDS011;5894;42.768;23.404;2023-04-03T00:16:16;17.80;;;10.50;;
11675;SDS011;5894;42.768;23.404;2023-04-03T00:18:43;17.17;;;10.80;;
11675;SDS011;5894;42.768;23.404;2023-04-03T00:21:10;20.30;;;11.87;;
11675;SDS011;5894;42.768;23.404;2023-04-03T00:23:39;18.20;;;11.07;;
11675;SDS011;5894;42.768;23.404;2023-04-03T00:26:05;18.57;;;11.27;;
11675;SDS011;5894;42.768;23.404;2023-04-03T00:28:34;22.00;;;12.37;;
11675;SDS011;5894;42.768;23.404;2023-04-03T00:31:01;19.67;;;11.27;;
11675;SDS011;5894;42.768;23.404;2023-04-03T00:33:27;22.73;;;13.13;;
11675;SDS011;5894;42.768;23.404;2023-04-03T00:35:54;17.93;;;12.17;;
11675;SDS011;5894;42.768;23.404;2023-04-03T00:38:21;16.83;;;10.87;;
11675;SDS011;5894;42.768;23.404;2023-04-03T00:40:49;17.20;;;11.53;;
11675;SDS011;5894;42.768;23.404;2023-04-03T00:43:17;17.03;;;11.47;;
11675;SDS011;5894;42.768;23.404;2023-04-03T00:45:47;18.23;;;10.90;;
11675;SDS011;5894;42.768;23.404;2023-04-03T00:48:16;16.37;;;10.80;;
11675;SDS011;5894;42.768;23.404;2023-04-03T00:50:46;18.33;;;10.90;;
11675;SDS011;5894;42.768;23.404;2023-04-03T00:53:16;17.60;;;10.37;;
11675;SDS011;5894;42.768;23.404;2023-04-03T00:55:46;17.97;;;10.13;;
11675;SDS011;5894;42.768;23.404;2023-04-03T00:58:14;14.47;;;9.50;;
11675;SDS011;5894;42.768;23.404;2023-04-03T01:00:46;16.57;;;10.70;;
11675;SDS011;5894;42.768;23.404;2023-04-03T01:03:21;19.30;;;12.30;;
11675;SDS011;5894;42.768;23.404;2023-04-03T01:05:48;15.20;;;8.13;;
11675;SDS011;5894;42.768;23.404;2023-04-03T01:08:16;13.63;;;9.20;;
11675;SDS011;5894;42.768;23.404;2023-04-03T01:10:43;14.87;;;8.03;;
11675;SDS011;5894;42.768;23.404;2023-04-03T01:13:21;10.80;;;7.27;;
11675;SDS011;5894;42.768;23.404;2023-04-03T01:15:52;10.57;;;7.10;;
11675;SDS011;5894;42.768;23.404;2023-04-03T01:18:20;8.73;;;6.43;;
11675;SDS011;5894;42.768;23.404;2023-04-03T01:26:49;14.27;;;8.60;;
11675;SDS011;5894;42.768;23.404;2023-04-03T01:29:16;12.97;;;8.33;;
11675;SDS011;5894;42.768;23.404;2023-04-03T01:31:46;16.30;;;9.87;;
11675;SDS011;5894;42.768;23.404;2023-04-03T01:34:15;18.73;;;9.93;;
11675;SDS011;5894;42.768;23.404;2023-04-03T01:36:43;15.57;;;9.00;;
11675;SDS011;5894;42.768;23.404;2023-04-03T01:39:10;10.93;;;7.17;;
11675;SDS011;5894;42.768;23.404;2023-04-03T01:41:37;7.33;;;4.87;;
11675;SDS011;5894;42.768;23.404;2023-04-03T01:44:11;7.33;;;5.07;;
11675;SDS011;5894;42.768;23.404;2023-04-03T01:46:39;11.70;;;6.03;;
11675;SDS011;5894;42.768;23.404;2023-04-03T01:49:07;14.43;;;6.43;;
11675;SDS011;5894;42.768;23.404;2023-04-03T01:51:34;17.13;;;9.00;;
11675;SDS011;5894;42.768;23.404;2023-04-03T01:54:02;17.17;;;9.40;;
11675;SDS011;5894;42.768;23.404;2023-04-03T01:56:29;15.77;;;8.73;;
11675;SDS011;5894;42.768;23.404;2023-04-03T01:58:56;18.53;;;10.53;;
11675;SDS011;5894;42.768;23.404;2023-04-03T02:01:23;16.57;;;10.30;;
11675;SDS011;5894;42.768;23.404;2023-04-03T02:03:51;15.17;;;9.03;;
11675;SDS011;5894;42.768;23.404;2023-04-03T02:06:19;15.10;;;8.73;;
11675;SDS011;5894;42.768;23.404;2023-04-03T02:08:46;14.40;;;9.07;;
11675;SDS011;5894;42.768;23.404;2023-04-03T02:11:13;14.77;;;9.27;;
11675;SDS011;5894;42.768;23.404;2023-04-03T02:13:40;15.47;;;9.43;;
11675;SDS011;5894;42.768;23.404;2023-04-03T02:16:07;15.20;;;9.03;;
11675;SDS011;5894;42.768;23.404;2023-04-03T02:18:35;16.77;;;8.77;;
11675;SDS011;5894;42.768;23.404;2023-04-03T02:21:03;23.40;;;12.10;;
11675;SDS011;5894;42.768;23.404;2023-04-03T02:23:31;20.60;;;13.10;;
11675;SDS011;5894;42.768;23.404;2023-04-03T02:26:05;16.10;;;10.30;;
11675;SDS011;5894;42.768;23.404;2023-04-03T02:28:33;11.83;;;8.60;;
11675;SDS011;5894;42.768;23.404;2023-04-03T02:31:00;11.70;;;7.80;;
11675;SDS011;5894;42.768;23.404;2023-04-03T02:33:29;11.80;;;7.43;;
11675;SDS011;5894;42.768;23.404;2023-04-03T02:35:57;13.00;;;8.57;;
11675;SDS011;5894;42.768;23.404;2023-04-03T02:38:24;14.37;;;10.17;;
11675;SDS011;5894;42.768;23.404;2023-04-03T02:40:57;10.83;;;8.40;;
11675;SDS011;5894;42.768;23.404;2023-04-03T02:43:26;12.53;;;8.00;;
11675;SDS011;5894;42.768;23.404;2023-04-03T02:45:53;12.00;;;8.27;;
11675;SDS011;5894;42.768;23.404;2023-04-03T02:48:20;13.33;;;8.67;;
11675;SDS011;5894;42.768;23.404;2023-04-03T02:50:47;19.30;;;12.87;;
11675;SDS011;5894;42.768;23.404;2023-04-03T02:53:14;41.10;;;22.70;;
11675;SDS011;5894;42.768;23.404;2023-04-03T02:55:41;40.27;;;24.00;;
11675;SDS011;5894;42.768;23.404;2023-04-03T02:58:10;22.73;;;14.30;;
11675;SDS011;5894;42.768;23.404;2023-04-03T03:00:37;15.33;;;10.80;;
11675;SDS011;5894;42.768;23.404;2023-04-03T03:03:04;13.47;;;9.07;;
11675;SDS011;5894;42.768;23.404;2023-04-03T03:05:31;11.97;;;8.80;;
11675;SDS011;5894;42.768;23.404;2023-04-03T03:07:58;11.27;;;7.50;;
11675;SDS011;5894;42.768;23.404;2023-04-03T03:10:25;11.20;;;7.53;;
11675;SDS011;5894;42.768;23.404;2023-04-03T03:12:52;12.07;;;7.77;;
11675;SDS011;5894;42.768;23.404;2023-04-03T03:15:21;9.03;;;6.30;;
11675;SDS011;5894;42.768;23.404;2023-04-03T03:17:47;12.37;;;7.13;;
11675;SDS011;5894;42.768;23.404;2023-04-03T03:20:14;10.87;;;6.40;;
11675;SDS011;5894;42.768;23.404;2023-04-03T03:22:41;9.80;;;6.23;;
11675;SDS011;5894;42.768;23.404;2023-04-03T03:25:08;7.87;;;5.50;;
11675;SDS011;5894;42.768;23.404;2023-04-03T03:27:35;7.63;;;5.07;;
11675;SDS011;5894;42.768;23.404;2023-04-03T03:30:03;9.97;;;5.70;;
11675;SDS011;5894;42.768;23.404;2023-04-03T03:32:33;9.33;;;5.73;;
11675;SDS011;5894;42.768;23.404;2023-04-03T03:35:00;7.87;;;5.17;;
11675;SDS011;5894;42.768;23.404;2023-04-03T03:37:27;8.23;;;5.03;;
11675;SDS011;5894;42.768;23.404;2023-04-03T03:39:54;8.37;;;5.53;;
11675;SDS011;5894;42.768;23.404;2023-04-03T03:42:21;9.17;;;5.57;;
11675;SDS011;5894;42.768;23.404;2023-04-03T03:44:49;8.43;;;5.47;;
11675;SDS011;5894;42.768;23.404;2023-04-03T03:47:18;9.43;;;5.63;;
11675;SDS011;5894;42.768;23.404;2023-04-03T03:49:47;12.57;;;6.40;;
11675;SDS011;5894;42.768;23.404;2023-04-03T03:52:15;13.50;;;6.60;;
11675;SDS011;5894;42.768;23.404;2023-04-03T03:54:42;10.67;;;6.60;;
11675;SDS011;5894;42.768;23.404;2023-04-03T03:57:09;8.90;;;5.80;;
11675;SDS011;5894;42.768;23.404;2023-04-03T03:59:37;10.07;;;6.47;;
11675;SDS011;5894;42.768;23.404;2023-04-03T04:02:06;12.90;;;6.83;;
11675;SDS011;5894;42.768;23.404;2023-04-03T04:04:33;16.80;;;7.60;;
11675;SDS011;5894;42.768;23.404;2023-04-03T04:07:01;11.77;;;7.37;;
11675;SDS011;5894;42.768;23.404;2023-04-03T04:09:29;16.37;;;10.00;;
11675;SDS011;5894;42.768;23.404;2023-04-03T04:11:56;16.80;;;8.17;;
11675;SDS011;5894;42.768;23.404;2023-04-03T04:14:23;15.33;;;8.47;;
11675;SDS011;5894;42.768;23.404;2023-04-03T04:16:50;12.40;;;7.80;;
11675;SDS011;5894;42.768;23.404;2023-04-03T04:19:22;14.37;;;8.67;;
11675;SDS011;5894;42.768;23.404;2023-04-03T04:21:49;23.07;;;10.17;;
11675;SDS011;5894;42.768;23.404;2023-04-03T04:24:18;15.20;;;8.60;;
11675;SDS011;5894;42.768;23.404;2023-04-03T04:26:47;18.17;;;8.37;;
11675;SDS011;5894;42.768;23.404;2023-04-03T04:29:16;14.23;;;7.57;;
11675;SDS011;5894;42.768;23.404;2023-04-03T04:31:46;18.33;;;10.77;;
11675;SDS011;5894;42.768;23.404;2023-04-03T04:34:13;29.60;;;16.90;;
11675;SDS011;5894;42.768;23.404;2023-04-03T04:36:41;17.67;;;11.57;;
11675;SDS011;5894;42.768;23.404;2023-04-03T04:39:08;19.53;;;11.00;;
11675;SDS011;5894;42.768;23.404;2023-04-03T04:41:37;14.77;;;9.10;;
11675;SDS011;5894;42.768;23.404;2023-04-03T04:44:05;15.73;;;8.27;;
11675;SDS011;5894;42.768;23.404;2023-04-03T04:46:33;17.03;;;8.53;;
11675;SDS011;5894;42.768;23.404;2023-04-03T04:49:00;16.57;;;9.03;;
11675;SDS011;5894;42.768;23.404;2023-04-03T04:51:29;13.97;;;8.47;;
11675;SDS011;5894;42.768;23.404;2023-04-03T04:53:56;13.17;;;8.17;;
11675;SDS011;5894;42.768;23.404;2023-04-03T04:56:24;18.10;;;7.90;;
11675;SDS011;5894;42.768;23.404;2023-04-03T04:58:54;23.67;;;13.93;;
11675;SDS011;5894;42.768;23.404;2023-04-03T05:01:22;27.60;;;14.50;;
11675;SDS011;5894;42.768;23.404;2023-04-03T05:03:56;28.90;;;15.53;;
11675;SDS011;5894;42.768;23.404;2023-04-03T05:06:23;29.73;;;14.47;;
11675;SDS011;5894;42.768;23.404;2023-04-03T05:08:52;30.50;;;15.17;;
11675;SDS011;5894;42.768;23.404;2023-04-03T05:11:19;25.20;;;13.53;;
11675;SDS011;5894;42.768;23.404;2023-04-03T05:13:49;18.37;;;11.07;;
11675;SDS011;5894;42.768;23.404;2023-04-03T05:16:17;16.50;;;8.37;;
11675;SDS011;5894;42.768;23.404;2023-04-03T05:18:45;16.10;;;7.87;;
11675;SDS011;5894;42.768;23.404;2023-04-03T05:21:17;11.13;;;7.30;;
11675;SDS011;5894;42.768;23.404;2023-04-03T05:23:45;10.33;;;7.13;;
11675;SDS011;5894;42.768;23.404;2023-04-03T05:26:13;18.50;;;8.00;;
11675;SDS011;5894;42.768;23.404;2023-04-03T05:28:41;11.30;;;7.57;;
11675;SDS011;5894;42.768;23.404;2023-04-03T05:31:10;17.87;;;9.00;;
11675;SDS011;5894;42.768;23.404;2023-04-03T05:33:38;14.20;;;9.57;;
11675;SDS011;5894;42.768;23.404;2023-04-03T05:36:08;15.17;;;8.10;;
11675;SDS011;5894;42.768;23.404;2023-04-03T05:38:41;12.73;;;7.70;;
11675;SDS011;5894;42.768;23.404;2023-04-03T05:41:09;11.37;;;7.13;;
11675;SDS011;5894;42.768;23.404;2023-04-03T05:43:36;16.30;;;9.33;;
11675;SDS011;5894;42.768;23.404;2023-04-03T05:46:08;16.10;;;11.83;;
11675;SDS011;5894;42.768;23.404;2023-04-03T05:48:40;19.80;;;12.43;;
11675;SDS011;5894;42.768;23.404;2023-04-03T05:51:14;17.43;;;10.50;;
11675;SDS011;5894;42.768;23.404;2023-04-03T05:53:43;16.40;;;9.00;;
11675;SDS011;5894;42.768;23.404;2023-04-03T05:56:11;146.00;;;51.33;;
11675;SDS011;5894;42.768;23.404;2023-04-03T05:58:39;208.20;;;68.97;;
11675;SDS011;5894;42.768;23.404;2023-04-03T06:01:06;153.13;;;59.90;;
11675;SDS011;5894;42.768;23.404;2023-04-03T06:03:34;42.37;;;20.60;;
11675;SDS011;5894;42.768;23.404;2023-04-03T06:06:03;38.63;;;20.97;;
11675;SDS011;5894;42.768;23.404;2023-04-03T06:08:31;28.40;;;17.50;;
11675;SDS011;5894;42.768;23.404;2023-04-03T06:10:58;31.10;;;15.60;;
11675;SDS011;5894;42.768;23.404;2023-04-03T06:13:26;25.03;;;15.37;;
11675;SDS011;5894;42.768;23.404;2023-04-03T06:15:53;27.27;;;16.03;;
11675;SDS011;5894;42.768;23.404;2023-04-03T06:18:21;32.70;;;18.33;;
11675;SDS011;5894;42.768;23.404;2023-04-03T06:20:48;29.67;;;16.90;;
11675;SDS011;5894;42.768;23.404;2023-04-03T06:23:16;39.93;;;19.27;;
11675;SDS011;5894;42.768;23.404;2023-04-03T06:25:43;34.47;;;18.53;;
11675;SDS011;5894;42.768;23.404;2023-04-03T06:28:10;37.67;;;17.67;;
11675;SDS011;5894;42.768;23.404;2023-04-03T06:30:37;31.50;;;14.77;;
11675;SDS011;5894;42.768;23.404;2023-04-03T06:33:04;28.43;;;12.90;;
11675;SDS011;5894;42.768;23.404;2023-04-03T06:35:30;19.97;;;11.30;;
11675;SDS011;5894;42.768;23.404;2023-04-03T06:38:00;19.03;;;10.10;;
11675;SDS011;5894;42.768;23.404;2023-04-03T06:40:30;14.20;;;8.73;;
11675;SDS011;5894;42.768;23.404;2023-04-03T06:42:57;14.10;;;8.00;;
11675;SDS011;5894;42.768;23.404;2023-04-03T06:45:24;15.00;;;8.70;;
11675;SDS011;5894;42.768;23.404;2023-04-03T06:47:51;13.30;;;8.37;;
11675;SDS011;5894;42.768;23.404;2023-04-03T06:50:18;13.80;;;7.93;;
11675;SDS011;5894;42.768;23.404;2023-04-03T06:52:46;11.40;;;6.90;;
11675;SDS011;5894;42.768;23.404;2023-04-03T06:55:13;10.57;;;7.10;;
11675;SDS011;5894;42.768;23.404;2023-04-03T06:57:41;9.03;;;6.57;;
11675;SDS011;5894;42.768;23.404;2023-04-03T07:00:08;8.53;;;6.23;;
11675;SDS011;5894;42.768;23.404;2023-04-03T07:02:37;8.70;;;6.07;;
11675;SDS011;5894;42.768;23.404;2023-04-03T07:05:04;9.90;;;6.00;;
11675;SDS011;5894;42.768;23.404;2023-04-03T07:07:31;15.10;;;6.37;;
11675;SDS011;5894;42.768;23.404;2023-04-03T07:09:59;24.20;;;6.43;;
11675;SDS011;5894;42.768;23.404;2023-04-03T07:12:26;9.67;;;5.20;;
11675;SDS011;5894;42.768;23.404;2023-04-03T07:14:54;7.50;;;5.47;;
11675;SDS011;5894;42.768;23.404;2023-04-03T07:17:21;8.83;;;6.00;;
11675;SDS011;5894;42.768;23.404;2023-04-03T07:19:48;10.17;;;6.10;;
11675;SDS011;5894;42.768;23.404;2023-04-03T07:22:16;18.10;;;6.67;;
11675;SDS011;5894;42.768;23.404;2023-04-03T07:24:43;13.00;;;7.80;;
11675;SDS011;5894;42.768;23.404;2023-04-03T07:27:10;12.80;;;7.33;;
11675;SDS011;5894;42.768;23.404;2023-04-03T07:29:38;18.00;;;7.73;;
11675;SDS011;5894;42.768;23.404;2023-04-03T07:32:07;8.37;;;6.17;;
11675;SDS011;5894;42.768;23.404;2023-04-03T07:34:34;9.37;;;5.77;;
11675;SDS011;5894;42.768;23.404;2023-04-03T07:37:00;10.03;;;5.43;;
11675;SDS011;5894;42.768;23.404;2023-04-03T07:39:27;6.33;;;5.40;;
11675;SDS011;5894;42.768;23.404;2023-04-03T07:41:54;12.47;;;6.60;;
11675;SDS011;5894;42.768;23.404;2023-04-03T07:44:21;7.73;;;5.53;;
11675;SDS011;5894;42.768;23.404;2023-04-03T07:46:48;7.07;;;5.30;;
11675;SDS011;5894;42.768;23.404;2023-04-03T07:49:17;9.90;;;6.63;;
11675;SDS011;5894;42.768;23.404;2023-04-03T07:51:44;7.43;;;6.30;;
11675;SDS011;5894;42.768;23.404;2023-04-03T07:54:11;10.33;;;6.50;;
11675;SDS011;5894;42.768;23.404;2023-04-03T07:56:38;10.80;;;6.83;;
11675;SDS011;5894;42.768;23.404;2023-04-03T07:59:05;8.90;;;6.80;;
11675;SDS011;5894;42.768;23.404;2023-04-03T08:01:33;11.07;;;7.87;;
11675;SDS011;5894;42.768;23.404;2023-04-03T08:03:59;12.43;;;7.80;;
11675;SDS011;5894;42.768;23.404;2023-04-03T08:06:28;12.37;;;7.40;;
11675;SDS011;5894;42.768;23.404;2023-04-03T08:08:57;11.77;;;7.23;;
11675;SDS011;5894;42.768;23.404;2023-04-03T08:11:24;8.67;;;6.60;;
11675;SDS011;5894;42.768;23.404;2023-04-03T08:13:51;9.27;;;5.90;;
11675;SDS011;5894;42.768;23.404;2023-04-03T08:16:20;9.87;;;6.53;;
11675;SDS011;5894;42.768;23.404;2023-04-03T08:18:50;8.37;;;6.10;;
11675;SDS011;5894;42.768;23.404;2023-04-03T08:21:17;9.00;;;6.10;;
11675;SDS011;5894;42.768;23.404;2023-04-03T08:23:47;10.30;;;6.97;;
11675;SDS011;5894;42.768;23.404;2023-04-03T08:26:16;10.67;;;7.47;;
11675;SDS011;5894;42.768;23.404;2023-04-03T08:28:44;13.20;;;8.17;;
11675;SDS011;5894;42.768;23.404;2023-04-03T08:31:12;12.03;;;9.10;;
11675;SDS011;5894;42.768;23.404;2023-04-03T08:33:41;12.37;;;8.80;;
11675;SDS011;5894;42.768;23.404;2023-04-03T08:36:14;11.90;;;7.27;;
11675;SDS011;5894;42.768;23.404;2023-04-03T08:38:43;13.87;;;7.03;;
11675;SDS011;5894;42.768;23.404;2023-04-03T08:41:13;7.70;;;6.33;;
11675;SDS011;5894;42.768;23.404;2023-04-03T08:43:51;6.30;;;5.63;;
11675;SDS011;5894;42.768;23.404;2023-04-03T08:46:24;8.57;;;5.80;;
11675;SDS011;5894;42.768;23.404;2023-04-03T08:48:59;8.33;;;6.37;;
11675;SDS011;5894;42.768;23.404;2023-04-03T08:51:26;8.03;;;5.43;;
11675;SDS011;5894;42.768;23.404;2023-04-03T08:53:57;6.47;;;5.30;;
11675;SDS011;5894;42.768;23.404;2023-04-03T08:56:29;5.10;;;4.60;;
11675;SDS011;5894;42.768;23.404;2023-04-03T08:58:58;6.50;;;4.83;;
11675;SDS011;5894;42.768;23.404;2023-04-03T09:01:29;7.40;;;5.60;;
11675;SDS011;5894;42.768;23.404;2023-04-03T09:04:00;7.40;;;5.30;;
11675;SDS011;5894;42.768;23.404;2023-04-03T09:06:27;6.17;;;5.47;;
11675;SDS011;5894;42.768;23.404;2023-04-03T09:09:01;8.60;;;5.47;;
11675;SDS011;5894;42.768;23.404;2023-04-03T09:11:43;7.93;;;4.30;;
11675;SDS011;5894;42.768;23.404;2023-04-03T09:14:21;6.40;;;4.93;;
11675;SDS011;5894;42.768;23.404;2023-04-03T09:16:54;9.37;;;4.70;;
11675;SDS011;5894;42.768;23.404;2023-04-03T09:19:25;10.13;;;5.00;;
11675;SDS011;5894;42.768;23.404;2023-04-03T09:22:03;13.03;;;6.37;;
11675;SDS011;5894;42.768;23.404;2023-04-03T09:24:41;9.60;;;6.00;;
11675;SDS011;5894;42.768;23.404;2023-04-03T09:27:11;7.80;;;5.50;;
11675;SDS011;5894;42.768;23.404;2023-04-03T09:29:39;7.43;;;4.83;;
11675;SDS011;5894;42.768;23.404;2023-04-03T09:32:15;15.97;;;5.93;;
11675;SDS011;5894;42.768;23.404;2023-04-03T09:34:47;7.03;;;5.53;;
11675;SDS011;5894;42.768;23.404;2023-04-03T09:40:12;10.03;;;6.33;;
11675;SDS011;5894;42.768;23.404;2023-04-03T09:42:56;7.43;;;6.05;;
11675;SDS011;5894;42.768;23.404;2023-04-03T09:45:26;7.53;;;5.78;;
11675;SDS011;5894;42.768;23.404;2023-04-03T09:48:08;9.30;;;5.78;;
11675;SDS011;5894;42.768;23.404;2023-04-03T09:50:52;7.13;;;5.20;;
11675;SDS011;5894;42.768;23.404;2023-04-03T09:53:28;7.90;;;6.07;;
11675;SDS011;5894;42.768;23.404;2023-04-03T09:56:00;7.18;;;5.10;;
11675;SDS011;5894;42.768;23.404;2023-04-03T09:58:30;5.07;;;4.20;;
11675;SDS011;5894;42.768;23.404;2023-04-03T10:00:59;7.40;;;5.10;;
11675;SDS011;5894;42.768;23.404;2023-04-03T10:03:29;8.77;;;3.92;;
11675;SDS011;5894;42.768;23.404;2023-04-03T10:05:57;7.13;;;4.35;;
11675;SDS011;5894;42.768;23.404;2023-04-03T10:08:26;6.35;;;4.07;;
11675;SDS011;5894;42.768;23.404;2023-04-03T10:11:08;10.55;;;5.60;;
11675;SDS011;5894;42.768;23.404;2023-04-03T10:13:42;7.90;;;4.70;;
11675;SDS011;5894;42.768;23.404;2023-04-03T10:16:17;10.00;;;4.68;;
11675;SDS011;5894;42.768;23.404;2023-04-03T10:18:49;7.85;;;5.80;;
11675;SDS011;5894;42.768;23.404;2023-04-03T10:21:27;13.65;;;8.82;;
11675;SDS011;5894;42.768;23.404;2023-04-03T10:24:05;13.55;;;8.82;;
11675;SDS011;5894;42.768;23.404;2023-04-03T10:26:41;8.35;;;5.13;;
11675;SDS011;5894;42.768;23.404;2023-04-03T10:29:17;5.13;;;3.70;;
11675;SDS011;5894;42.768;23.404;2023-04-03T10:31:56;5.85;;;2.90;;
11675;SDS011;5894;42.768;23.404;2023-04-03T10:34:28;7.50;;;2.97;;
11675;SDS011;5894;42.768;23.404;2023-04-03T10:37:00;6.93;;;3.40;;
11675;SDS011;5894;42.768;23.404;2023-04-03T10:39:38;13.63;;;6.13;;
11675;SDS011;5894;42.768;23.404;2023-04-03T10:42:13;9.00;;;4.95;;
11675;SDS011;5894;42.768;23.404;2023-04-03T10:44:52;6.28;;;3.90;;
11675;SDS011;5894;42.768;23.404;2023-04-03T10:47:30;6.78;;;4.30;;
11675;SDS011;5894;42.768;23.404;2023-04-03T10:50:02;7.97;;;4.32;;
11675;SDS011;5894;42.768;23.404;2023-04-03T10:52:50;7.10;;;3.95;;
11675;SDS011;5894;42.768;23.404;2023-04-03T10:55:24;10.75;;;6.00;;
11675;SDS011;5894;42.768;23.404;2023-04-03T10:58:02;9.82;;;5.90;;
11675;SDS011;5894;42.768;23.404;2023-04-03T11:00:33;5.50;;;3.85;;
11675;SDS011;5894;42.768;23.404;2023-04-03T11:03:05;10.00;;;5.10;;
11675;SDS011;5894;42.768;23.404;2023-04-03T11:05:39;7.72;;;4.43;;
11675;SDS011;5894;42.768;23.404;2023-04-03T11:08:10;11.13;;;4.72;;
11675;SDS011;5894;42.768;23.404;2023-04-03T11:10:44;7.22;;;4.38;;
11675;SDS011;5894;42.768;23.404;2023-04-03T11:13:17;8.15;;;4.25;;
11675;SDS011;5894;42.768;23.404;2023-04-03T11:15:49;8.57;;;4.72;;
11675;SDS011;5894;42.768;23.404;2023-04-03T11:18:20;6.15;;;4.60;;
11675;SDS011;5894;42.768;23.404;2023-04-03T11:20:52;8.88;;;3.92;;
11675;SDS011;5894;42.768;23.404;2023-04-03T11:23:26;8.68;;;5.22;;
11675;SDS011;5894;42.768;23.404;2023-04-03T11:25:58;10.32;;;5.25;;
11675;SDS011;5894;42.768;23.404;2023-04-03T11:28:34;7.93;;;4.95;;
11675;SDS011;5894;42.768;23.404;2023-04-03T11:31:07;9.75;;;7.05;;
11675;SDS011;5894;42.768;23.404;2023-04-03T11:33:47;11.30;;;6.03;;
11675;SDS011;5894;42.768;23.404;2023-04-03T11:36:22;14.43;;;8.45;;
11675;SDS011;5894;42.768;23.404;2023-04-03T11:38:52;11.93;;;6.30;;
11675;SDS011;5894;42.768;23.404;2023-04-03T11:41:25;8.45;;;4.78;;
11675;SDS011;5894;42.768;23.404;2023-04-03T11:44:00;8.20;;;5.00;;
11675;SDS011;5894;42.768;23.404;2023-04-03T11:58:27;12.73;;;8.50;;
11675;SDS011;5894;42.768;23.404;2023-04-03T12:01:06;13.48;;;9.85;;
11675;SDS011;5894;42.768;23.404;2023-04-03T12:06:47;6.32;;;4.70;;
11675;SDS011;5894;42.768;23.404;2023-04-03T12:09:54;5.55;;;4.53;;
11675;SDS011;5894;42.768;23.404;2023-04-03T12:12:35;6.87;;;5.10;;
11675;SDS011;5894;42.768;23.404;2023-04-03T12:17:54;7.70;;;5.93;;
11675;SDS011;5894;42.768;23.404;2023-04-03T12:23:29;10.05;;;6.30;;
11675;SDS011;5894;42.768;23.404;2023-04-03T12:26:02;7.22;;;6.20;;
11675;SDS011;5894;42.768;23.404;2023-04-03T12:28:46;7.40;;;6.53;;
11675;SDS011;5894;42.768;23.404;2023-04-03T12:31:16;20.03;;;12.23;;
11675;SDS011;5894;42.768;23.404;2023-04-03T12:36:41;16.00;;;10.52;;
11675;SDS011;5894;42.768;23.404;2023-04-03T12:39:25;14.57;;;9.90;;
11675;SDS011;5894;42.768;23.404;2023-04-03T12:42:14;7.37;;;6.60;;
11675;SDS011;5894;42.768;23.404;2023-04-03T12:44:54;8.82;;;7.60;;
11675;SDS011;5894;42.768;23.404;2023-04-03T12:47:27;10.40;;;8.43;;
11675;SDS011;5894;42.768;23.404;2023-04-03T12:50:00;9.40;;;7.40;;
11675;SDS011;5894;42.768;23.404;2023-04-03T12:52:32;9.37;;;7.30;;
11675;SDS011;5894;42.768;23.404;2023-04-03T12:55:07;8.03;;;4.70;;
11675;SDS011;5894;42.768;23.404;2023-04-03T12:57:43;5.80;;;3.80;;
11675;SDS011;5894;42.768;23.404;2023-04-03T13:00:20;7.73;;;4.43;;
11675;SDS011;5894;42.768;23.404;2023-04-03T13:02:52;5.67;;;3.43;;
11675;SDS011;5894;42.768;23.404;2023-04-03T13:05:21;4.27;;;3.33;;
11675;SDS011;5894;42.768;23.404;2023-04-03T13:07:50;3.40;;;2.53;;
11675;SDS011;5894;42.768;23.404;2023-04-03T13:10:22;8.97;;;5.80;;
11675;SDS011;5894;42.768;23.404;2023-04-03T13:12:49;16.60;;;10.53;;
11675;SDS011;5894;42.768;23.404;2023-04-03T13:15:19;28.60;;;17.50;;
11675;SDS011;5894;42.768;23.404;2023-04-03T13:17:47;24.77;;;13.43;;
11675;SDS011;5894;42.768;23.404;2023-04-03T13:20:19;36.57;;;21.60;;
11675;SDS011;5894;42.768;23.404;2023-04-03T13:22:52;56.40;;;32.60;;
11675;SDS011;5894;42.768;23.404;2023-04-03T13:25:25;41.07;;;22.70;;
11675;SDS011;5894;42.768;23.404;2023-04-03T13:27:56;27.80;;;14.97;;
11675;SDS011;5894;42.768;23.404;2023-04-03T13:30:26;56.97;;;26.13;;
11675;SDS011;5894;42.768;23.404;2023-04-03T13:32:55;79.33;;;31.67;;
11675;SDS011;5894;42.768;23.404;2023-04-03T13:35:33;50.07;;;21.57;;
11675;SDS011;5894;42.768;23.404;2023-04-03T13:38:04;72.43;;;30.97;;
11675;SDS011;5894;42.768;23.404;2023-04-03T13:40:33;70.53;;;28.53;;
11675;SDS011;5894;42.768;23.404;2023-04-03T13:43:02;64.17;;;27.77;;
11675;SDS011;5894;42.768;23.404;2023-04-03T13:45:31;82.70;;;34.53;;
11675;SDS011;5894;42.768;23.404;2023-04-03T13:48:14;58.43;;;29.77;;
11675;SDS011;5894;42.768;23.404;2023-04-03T13:50:53;71.67;;;30.30;;
11675;SDS011;5894;42.768;23.404;2023-04-03T13:53:25;75.93;;;32.07;;
11675;SDS011;5894;42.768;23.404;2023-04-03T13:55:54;64.03;;;24.20;;
11675;SDS011;5894;42.768;23.404;2023-04-03T13:58:24;73.90;;;27.93;;
11675;SDS011;5894;42.768;23.404;2023-04-03T14:00:53;68.37;;;26.80;;
11675;SDS011;5894;42.768;23.404;2023-04-03T14:03:23;94.87;;;36.07;;
11675;SDS011;5894;42.768;23.404;2023-04-03T14:05:53;56.07;;;23.73;;
11675;SDS011;5894;42.768;23.404;2023-04-03T14:08:20;61.40;;;29.83;;
11675;SDS011;5894;42.768;23.404;2023-04-03T14:10:47;90.17;;;37.90;;
11675;SDS011;5894;42.768;23.404;2023-04-03T14:13:15;97.73;;;38.80;;
11675;SDS011;5894;42.768;23.404;2023-04-03T14:15:44;86.10;;;33.37;;
11675;SDS011;5894;42.768;23.404;2023-04-03T14:18:14;39.27;;;18.97;;
11675;SDS011;5894;42.768;23.404;2023-04-03T14:20:43;50.83;;;26.30;;
11675;SDS011;5894;42.768;23.404;2023-04-03T14:23:15;96.97;;;35.43;;
11675;SDS011;5894;42.768;23.404;2023-04-03T14:25:42;93.40;;;32.00;;
11675;SDS011;5894;42.768;23.404;2023-04-03T14:28:13;71.60;;;27.00;;
11675;SDS011;5894;42.768;23.404;2023-04-03T14:30:43;64.73;;;27.03;;
11675;SDS011;5894;42.768;23.404;2023-04-03T14:33:12;40.20;;;24.87;;
11675;SDS011;5894;42.768;23.404;2023-04-03T14:35:41;48.10;;;24.27;;
11675;SDS011;5894;42.768;23.404;2023-04-03T14:38:21;40.87;;;24.87;;
11675;SDS011;5894;42.768;23.404;2023-04-03T14:40:50;42.00;;;28.37;;
11675;SDS011;5894;42.768;23.404;2023-04-03T14:43:18;50.43;;;28.73;;
11675;SDS011;5894;42.768;23.404;2023-04-03T14:45:45;70.13;;;35.50;;
11675;SDS011;5894;42.768;23.404;2023-04-03T14:48:15;47.17;;;27.63;;
11675;SDS011;5894;42.768;23.404;2023-04-03T14:50:45;61.70;;;25.20;;
11675;SDS011;5894;42.768;23.404;2023-04-03T14:53:13;69.40;;;23.67;;
11675;SDS011;5894;42.768;23.404;2023-04-03T14:55:43;70.27;;;25.20;;
11675;SDS011;5894;42.768;23.404;2023-04-03T14:58:12;76.83;;;28.63;;
11675;SDS011;5894;42.768;23.404;2023-04-03T15:00:40;78.30;;;34.07;;
11675;SDS011;5894;42.768;23.404;2023-04-03T15:03:10;46.40;;;25.13;;
11675;SDS011;5894;42.768;23.404;2023-04-03T15:05:39;115.40;;;34.77;;
11675;SDS011;5894;42.768;23.404;2023-04-03T15:08:08;71.43;;;25.80;;
11675;SDS011;5894;42.768;23.404;2023-04-03T15:10:46;55.13;;;22.87;;
11675;SDS011;5894;42.768;23.404;2023-04-03T15:13:14;29.30;;;13.30;;
11675;SDS011;5894;42.768;23.404;2023-04-03T15:15:40;43.00;;;15.07;;
11675;SDS011;5894;42.768;23.404;2023-04-03T15:18:09;31.77;;;13.83;;
11675;SDS011;5894;42.768;23.404;2023-04-03T15:20:40;60.33;;;20.07;;
11675;SDS011;5894;42.768;23.404;2023-04-03T15:23:09;25.93;;;12.70;;